sensor_id;sensor_type;location;lat;lon;timestamp;pressure;altitude;pressure_sealevel;temperature;humidity
62655;BME280;48717;55.556;37.816;2023-10-08T00:01:20;96111.25;;;5.40;80.34
62655;BME280;48717;55.556;37.816;2023-10-08T00:03:49;96162.50;;;5.65;80.84
62655;BME280;48717;55.556;37.816;2023-10-08T00:06:25;96163.53;;;5.61;80.40
62655;BME280;48717;55.556;37.816;2023-10-08T00:08:56;96164.13;;;5.68;80.76
62655;BME280;48717;55.556;37.816;2023-10-08T00:11:28;96124.16;;;5.43;80.20
62655;BME280;48717;55.556;37.816;2023-10-08T00:13:58;96139.00;;;5.43;79.31
62655;BME280;48717;55.556;37.816;2023-10-08T00:16:28;96176.69;;;5.59;78.84
62655;BME280;48717;55.556;37.816;2023-10-08T00:18:56;96160.16;;;5.59;78.90
62655;BME280;48717;55.556;37.816;2023-10-08T00:21:27;96165.44;;;5.57;77.55
62655;BME280;48717;55.556;37.816;2023-10-08T00:23:55;96173.22;;;5.59;78.18
62655;BME280;48717;55.556;37.816;2023-10-08T00:26:28;96178.31;;;5.62;78.39
62655;BME280;48717;55.556;37.816;2023-10-08T00:29:04;96166.41;;;5.55;77.51
62655;BME280;48717;55.556;37.816;2023-10-08T00:31:52;96169.72;;;5.58;76.98
62655;BME280;48717;55.556;37.816;2023-10-08T00:34:24;96161.28;;;5.52;76.44
62655;BME280;48717;55.556;37.816;2023-10-08T00:36:51;96152.38;;;5.35;75.59
62655;BME280;48717;55.556;37.816;2023-10-08T00:39:18;96173.28;;;5.57;75.80
62655;BME280;48717;55.556;37.816;2023-10-08T00:41:53;96170.53;;;5.60;75.82
62655;BME280;48717;55.556;37.816;2023-10-08T00:44:30;96174.78;;;5.63;75.60
62655;BME280;48717;55.556;37.816;2023-10-08T00:47:03;96139.91;;;5.42;76.46
62655;BME280;48717;55.556;37.816;2023-10-08T00:49:32;96183.41;;;5.65;76.79
62655;BME280;48717;55.556;37.816;2023-10-08T00:52:11;96182.63;;;5.63;76.88
62655;BME280;48717;55.556;37.816;2023-10-08T00:54:41;96183.78;;;5.56;76.44
62655;BME280;48717;55.556;37.816;2023-10-08T00:57:37;96169.69;;;5.60;76.64
62655;BME280;48717;55.556;37.816;2023-10-08T01:00:15;96169.72;;;5.58;76.84
62655;BME280;48717;55.556;37.816;2023-10-08T01:02:52;96159.72;;;5.47;76.35
62655;BME280;48717;55.556;37.816;2023-10-08T01:05:29;96178.81;;;5.49;76.22
62655;BME280;48717;55.556;37.816;2023-10-08T01:08:14;96173.56;;;5.49;76.68
62655;BME280;48717;55.556;37.816;2023-10-08T01:10:45;96179.16;;;5.40;76.97
62655;BME280;48717;55.556;37.816;2023-10-08T01:13:14;96161.19;;;5.32;77.41
62655;BME280;48717;55.556;37.816;2023-10-08T01:15:46;96117.78;;;5.06;77.22
62655;BME280;48717;55.556;37.816;2023-10-08T01:18:17;96182.09;;;5.32;76.50
62655;BME280;48717;55.556;37.816;2023-10-08T01:20:52;96150.34;;;5.19;75.96
62655;BME280;48717;55.556;37.816;2023-10-08T01:23:21;96166.47;;;5.31;76.16
62655;BME280;48717;55.556;37.816;2023-10-08T01:25:49;96163.59;;;5.37;75.04
62655;BME280;48717;55.556;37.816;2023-10-08T01:28:36;96122.13;;;5.05;74.98
62655;BME280;48717;55.556;37.816;2023-10-08T01:31:03;96125.16;;;4.94;74.42
62655;BME280;48717;55.556;37.816;2023-10-08T01:33:31;96168.28;;;5.29;73.84
62655;BME280;48717;55.556;37.816;2023-10-08T01:36:04;96189.97;;;5.31;74.05
62655;BME280;48717;55.556;37.816;2023-10-08T01:38:32;96190.94;;;5.28;74.49
62655;BME280;48717;55.556;37.816;2023-10-08T01:41:02;96186.13;;;5.17;73.48
62655;BME280;48717;55.556;37.816;2023-10-08T01:43:30;96141.34;;;5.04;73.12
62655;BME280;48717;55.556;37.816;2023-10-08T01:45:57;96188.59;;;5.20;73.79
62655;BME280;48717;55.556;37.816;2023-10-08T01:48:25;96197.34;;;5.19;73.50
62655;BME280;48717;55.556;37.816;2023-10-08T01:50:59;96173.84;;;5.19;73.42
62655;BME280;48717;55.556;37.816;2023-10-08T01:53:28;96143.38;;;4.96;73.45
62655;BME280;48717;55.556;37.816;2023-10-08T01:55:55;96182.72;;;5.15;74.55
62655;BME280;48717;55.556;37.816;2023-10-08T01:58:22;96161.88;;;5.14;74.65
62655;BME280;48717;55.556;37.816;2023-10-08T02:00:50;96135.84;;;4.88;73.21
62655;BME280;48717;55.556;37.816;2023-10-08T02:03:19;96172.03;;;4.97;73.82
62655;BME280;48717;55.556;37.816;2023-10-08T02:05:47;96151.63;;;4.85;74.21
62655;BME280;48717;55.556;37.816;2023-10-08T02:08:15;96173.75;;;4.99;73.90
62655;BME280;48717;55.556;37.816;2023-10-08T02:10:44;96153.09;;;4.92;73.98
62655;BME280;48717;55.556;37.816;2023-10-08T02:13:15;96139.59;;;4.81;73.32
62655;BME280;48717;55.556;37.816;2023-10-08T02:15:48;96147.50;;;4.79;72.63
62655;BME280;48717;55.556;37.816;2023-10-08T02:18:18;96084.31;;;4.46;73.25
62655;BME280;48717;55.556;37.816;2023-10-08T02:20:45;96167.16;;;4.88;73.23
62655;BME280;48717;55.556;37.816;2023-10-08T02:23:12;96168.75;;;4.92;73.68
62655;BME280;48717;55.556;37.816;2023-10-08T02:25:40;96163.78;;;4.86;73.53
62655;BME280;48717;55.556;37.816;2023-10-08T02:28:10;96148.50;;;4.75;73.61
62655;BME280;48717;55.556;37.816;2023-10-08T02:30:42;96161.56;;;4.75;73.07
62655;BME280;48717;55.556;37.816;2023-10-08T02:33:10;96161.31;;;4.81;72.22
62655;BME280;48717;55.556;37.816;2023-10-08T02:35:45;96166.59;;;4.80;71.80
62655;BME280;48717;55.556;37.816;2023-10-08T02:38:15;96084.47;;;4.42;71.74
62655;BME280;48717;55.556;37.816;2023-10-08T02:40:49;96165.00;;;4.76;71.68
62655;BME280;48717;55.556;37.816;2023-10-08T02:43:18;96167.50;;;4.79;72.04
62655;BME280;48717;55.556;37.816;2023-10-08T02:45:45;96169.44;;;4.74;72.02
62655;BME280;48717;55.556;37.816;2023-10-08T02:48:17;96147.31;;;4.60;71.87
62655;BME280;48717;55.556;37.816;2023-10-08T02:50:48;96175.41;;;4.77;71.92
62655;BME280;48717;55.556;37.816;2023-10-08T02:53:19;96142.19;;;4.57;71.83
62655;BME280;48717;55.556;37.816;2023-10-08T02:55:51;96142.31;;;4.54;71.77
62655;BME280;48717;55.556;37.816;2023-10-08T02:58:24;96127.78;;;4.47;71.92
62655;BME280;48717;55.556;37.816;2023-10-08T03:00:54;96184.81;;;4.57;72.14
62655;BME280;48717;55.556;37.816;2023-10-08T03:03:21;96170.84;;;4.59;73.41
62655;BME280;48717;55.556;37.816;2023-10-08T03:06:01;96154.13;;;4.39;72.51
62655;BME280;48717;55.556;37.816;2023-10-08T03:08:30;96170.31;;;4.49;72.66
62655;BME280;48717;55.556;37.816;2023-10-08T03:11:04;96138.84;;;4.28;72.46
62655;BME280;48717;55.556;37.816;2023-10-08T03:13:31;96148.41;;;4.29;72.73
62655;BME280;48717;55.556;37.816;2023-10-08T03:15:58;96109.44;;;3.99;72.83
62655;BME280;48717;55.556;37.816;2023-10-08T03:18:29;96181.22;;;4.35;72.31
62655;BME280;48717;55.556;37.816;2023-10-08T03:21:04;96160.75;;;4.24;72.45
62655;BME280;48717;55.556;37.816;2023-10-08T03:23:32;96155.75;;;4.17;73.86
62655;BME280;48717;55.556;37.816;2023-10-08T03:26:04;96185.88;;;4.26;73.51
62655;BME280;48717;55.556;37.816;2023-10-08T03:29:01;96160.63;;;4.27;73.85
62655;BME280;48717;55.556;37.816;2023-10-08T03:31:33;96166.81;;;4.24;74.16
62655;BME280;48717;55.556;37.816;2023-10-08T03:34:20;96116.25;;;4.03;74.69
62655;BME280;48717;55.556;37.816;2023-10-08T03:36:54;96087.31;;;3.85;73.70
62655;BME280;48717;55.556;37.816;2023-10-08T03:39:37;96134.50;;;4.03;73.79
62655;BME280;48717;55.556;37.816;2023-10-08T03:42:41;96156.28;;;4.27;74.27
62655;BME280;48717;55.556;37.816;2023-10-08T03:45:09;96130.94;;;4.05;74.12
62655;BME280;48717;55.556;37.816;2023-10-08T03:47:42;96160.09;;;4.17;73.28
62655;BME280;48717;55.556;37.816;2023-10-08T03:50:14;96138.41;;;4.16;73.15
62655;BME280;48717;55.556;37.816;2023-10-08T03:52:51;96164.06;;;4.29;73.81
62655;BME280;48717;55.556;37.816;2023-10-08T03:55:22;96166.75;;;4.26;73.79
62655;BME280;48717;55.556;37.816;2023-10-08T03:57:56;96155.84;;;4.14;74.42
62655;BME280;48717;55.556;37.816;2023-10-08T04:00:30;96164.66;;;4.10;75.56
62655;BME280;48717;55.556;37.816;2023-10-08T04:03:08;96147.53;;;4.03;75.00
62655;BME280;48717;55.556;37.816;2023-10-08T04:05:38;96127.09;;;3.90;75.75
62655;BME280;48717;55.556;37.816;2023-10-08T04:08:26;96154.56;;;4.01;74.86
62655;BME280;48717;55.556;37.816;2023-10-08T04:11:25;96168.31;;;4.06;75.05
62655;BME280;48717;55.556;37.816;2023-10-08T04:13:59;96166.38;;;4.11;74.82
62655;BME280;48717;55.556;37.816;2023-10-08T04:16:29;96168.22;;;4.08;75.08
62655;BME280;48717;55.556;37.816;2023-10-08T04:18:57;96148.22;;;4.08;75.61
62655;BME280;48717;55.556;37.816;2023-10-08T04:21:24;96064.81;;;3.57;76.23
62655;BME280;48717;55.556;37.816;2023-10-08T04:23:55;96136.25;;;4.02;74.59
62655;BME280;48717;55.556;37.816;2023-10-08T04:26:24;96150.75;;;4.11;74.19
62655;BME280;48717;55.556;37.816;2023-10-08T04:28:53;96172.03;;;4.24;74.60
62655;BME280;48717;55.556;37.816;2023-10-08T04:31:29;96156.91;;;4.09;74.04
62655;BME280;48717;55.556;37.816;2023-10-08T04:34:04;96135.53;;;3.99;74.23
62655;BME280;48717;55.556;37.816;2023-10-08T04:36:44;96183.72;;;4.12;74.95
62655;BME280;48717;55.556;37.816;2023-10-08T04:39:21;96134.97;;;3.89;75.40
62655;BME280;48717;55.556;37.816;2023-10-08T04:41:49;96169.09;;;4.08;75.52
62655;BME280;48717;55.556;37.816;2023-10-08T04:44:21;96081.63;;;3.47;75.80
62655;BME280;48717;55.556;37.816;2023-10-08T04:46:52;96150.50;;;3.92;75.38
62655;BME280;48717;55.556;37.816;2023-10-08T04:49:20;96163.09;;;4.06;74.29
62655;BME280;48717;55.556;37.816;2023-10-08T04:51:59;96180.31;;;4.10;74.78
62655;BME280;48717;55.556;37.816;2023-10-08T04:54:28;96166.22;;;4.16;74.78
62655;BME280;48717;55.556;37.816;2023-10-08T04:56:59;96180.03;;;4.20;73.60
62655;BME280;48717;55.556;37.816;2023-10-08T04:59:30;96172.13;;;4.21;73.15
62655;BME280;48717;55.556;37.816;2023-10-08T05:02:04;96178.88;;;4.27;72.82
62655;BME280;48717;55.556;37.816;2023-10-08T05:04:54;96177.56;;;4.15;72.02
62655;BME280;48717;55.556;37.816;2023-10-08T05:07:39;96183.09;;;4.31;71.53
62655;BME280;48717;55.556;37.816;2023-10-08T05:10:26;96176.81;;;4.37;71.33
62655;BME280;48717;55.556;37.816;2023-10-08T05:12:54;96136.06;;;4.09;71.43
62655;BME280;48717;55.556;37.816;2023-10-08T05:15:42;96157.97;;;4.03;71.20
62655;BME280;48717;55.556;37.816;2023-10-08T05:18:29;96170.53;;;4.17;72.54
62655;BME280;48717;55.556;37.816;2023-10-08T05:21:16;96168.00;;;4.15;72.23
62655;BME280;48717;55.556;37.816;2023-10-08T05:23:52;96187.75;;;4.21;72.79
62655;BME280;48717;55.556;37.816;2023-10-08T05:26:38;96175.72;;;4.17;72.54
62655;BME280;48717;55.556;37.816;2023-10-08T05:29:09;96201.22;;;4.36;72.54
62655;BME280;48717;55.556;37.816;2023-10-08T05:31:55;96190.91;;;4.31;72.32
62655;BME280;48717;55.556;37.816;2023-10-08T05:34:41;96206.09;;;4.20;73.21
62655;BME280;48717;55.556;37.816;2023-10-08T05:37:23;96208.84;;;4.40;73.04
62655;BME280;48717;55.556;37.816;2023-10-08T05:40:05;96121.97;;;3.87;73.26
62655;BME280;48717;55.556;37.816;2023-10-08T05:42:48;96211.38;;;4.43;73.98
62655;BME280;48717;55.556;37.816;2023-10-08T05:45:30;96210.22;;;4.25;73.74
62655;BME280;48717;55.556;37.816;2023-10-08T05:48:01;96220.84;;;4.21;74.02
62655;BME280;48717;55.556;37.816;2023-10-08T05:50:42;96180.13;;;4.16;74.69
62655;BME280;48717;55.556;37.816;2023-10-08T05:53:23;96223.88;;;4.34;74.49
62655;BME280;48717;55.556;37.816;2023-10-08T05:56:09;96209.59;;;4.18;73.52
62655;BME280;48717;55.556;37.816;2023-10-08T05:58:55;96207.88;;;4.17;73.77
62655;BME280;48717;55.556;37.816;2023-10-08T06:01:41;96175.47;;;3.99;74.13
62655;BME280;48717;55.556;37.816;2023-10-08T06:04:13;96214.66;;;4.49;74.09
62655;BME280;48717;55.556;37.816;2023-10-08T06:06:59;96166.66;;;4.29;72.47
62655;BME280;48717;55.556;37.816;2023-10-08T06:09:39;96213.44;;;4.59;72.15
62655;BME280;48717;55.556;37.816;2023-10-08T06:12:17;96196.50;;;4.46;72.07
62655;BME280;48717;55.556;37.816;2023-10-08T06:14:57;96180.53;;;4.29;72.87
62655;BME280;48717;55.556;37.816;2023-10-08T06:17:38;96214.66;;;4.49;72.50
62655;BME280;48717;55.556;37.816;2023-10-08T06:20:34;96151.44;;;4.16;71.07
62655;BME280;48717;55.556;37.816;2023-10-08T06:23:01;96191.94;;;4.27;71.03
62655;BME280;48717;55.556;37.816;2023-10-08T06:25:34;96226.56;;;4.57;71.39
62655;BME280;48717;55.556;37.816;2023-10-08T06:28:16;96213.09;;;4.17;69.85
62655;BME280;48717;55.556;37.816;2023-10-08T06:30:48;96219.19;;;4.43;69.99
62655;BME280;48717;55.556;37.816;2023-10-08T06:33:16;96219.28;;;4.40;69.60
62655;BME280;48717;55.556;37.816;2023-10-08T06:35:46;96224.41;;;4.43;69.08
62655;BME280;48717;55.556;37.816;2023-10-08T06:38:30;96218.91;;;4.51;68.87
62655;BME280;48717;55.556;37.816;2023-10-08T06:41:02;96194.72;;;4.48;67.93
62655;BME280;48717;55.556;37.816;2023-10-08T06:43:37;96173.84;;;4.48;67.41
62655;BME280;48717;55.556;37.816;2023-10-08T06:46:05;96219.31;;;4.66;67.31
62655;BME280;48717;55.556;37.816;2023-10-08T06:48:40;96230.81;;;4.60;66.84
62655;BME280;48717;55.556;37.816;2023-10-08T06:51:10;96248.69;;;4.46;67.92
62655;BME280;48717;55.556;37.816;2023-10-08T06:53:41;96256.22;;;4.28;68.63
62655;BME280;48717;55.556;37.816;2023-10-08T06:56:08;96196.97;;;3.79;70.46
62655;BME280;48717;55.556;37.816;2023-10-08T06:58:39;96250.91;;;4.04;71.13
62655;BME280;48717;55.556;37.816;2023-10-08T07:01:12;96272.28;;;3.88;71.76
62655;BME280;48717;55.556;37.816;2023-10-08T07:03:40;96234.56;;;3.72;72.02
62655;BME280;48717;55.556;37.816;2023-10-08T07:06:09;96252.31;;;3.87;73.08
62655;BME280;48717;55.556;37.816;2023-10-08T07:09:06;96215.63;;;3.67;73.81
62655;BME280;48717;55.556;37.816;2023-10-08T07:11:40;96246.47;;;3.79;73.59
62655;BME280;48717;55.556;37.816;2023-10-08T07:14:12;96281.50;;;3.70;73.73
62655;BME280;48717;55.556;37.816;2023-10-08T07:16:40;96229.19;;;3.48;74.55
62655;BME280;48717;55.556;37.816;2023-10-08T07:19:09;96280.63;;;3.70;74.41
62655;BME280;48717;55.556;37.816;2023-10-08T07:21:46;96258.47;;;3.56;74.55
62655;BME280;48717;55.556;37.816;2023-10-08T07:24:14;96214.03;;;3.32;74.59
62655;BME280;48717;55.556;37.816;2023-10-08T07:26:48;96284.06;;;3.72;74.58
62655;BME280;48717;55.556;37.816;2023-10-08T07:29:17;96295.06;;;3.82;74.34
62655;BME280;48717;55.556;37.816;2023-10-08T07:31:47;96278.75;;;3.75;74.95
62655;BME280;48717;55.556;37.816;2023-10-08T07:34:16;96263.22;;;3.72;75.32
62655;BME280;48717;55.556;37.816;2023-10-08T07:36:54;96273.38;;;3.51;75.99
62655;BME280;48717;55.556;37.816;2023-10-08T07:39:22;96275.09;;;3.52;77.46
62655;BME280;48717;55.556;37.816;2023-10-08T07:42:13;96276.84;;;3.51;78.23
62655;BME280;48717;55.556;37.816;2023-10-08T07:44:40;96283.38;;;3.36;78.74
62655;BME280;48717;55.556;37.816;2023-10-08T07:47:07;96292.09;;;3.35;79.14
62655;BME280;48717;55.556;37.816;2023-10-08T07:49:39;96277.97;;;3.43;79.48
62655;BME280;48717;55.556;37.816;2023-10-08T07:52:06;96258.75;;;3.47;79.96
62655;BME280;48717;55.556;37.816;2023-10-08T07:54:34;96256.84;;;3.52;78.09
62655;BME280;48717;55.556;37.816;2023-10-08T07:57:02;96288.16;;;3.79;78.71
62655;BME280;48717;55.556;37.816;2023-10-08T07:59:40;96289.16;;;3.75;77.04
62655;BME280;48717;55.556;37.816;2023-10-08T08:02:16;96288.28;;;3.76;77.85
62655;BME280;48717;55.556;37.816;2023-10-08T08:04:45;96300.22;;;3.83;78.01
62655;BME280;48717;55.556;37.816;2023-10-08T08:07:13;96283.44;;;3.63;77.53
62655;BME280;48717;55.556;37.816;2023-10-08T08:09:44;96290.34;;;3.64;76.44
62655;BME280;48717;55.556;37.816;2023-10-08T08:12:28;96305.19;;;3.62;76.72
62655;BME280;48717;55.556;37.816;2023-10-08T08:14:55;96291.75;;;3.75;74.75
62655;BME280;48717;55.556;37.816;2023-10-08T08:17:23;96244.66;;;3.54;73.57
62655;BME280;48717;55.556;37.816;2023-10-08T08:19:52;96304.53;;;3.84;75.07
62655;BME280;48717;55.556;37.816;2023-10-08T08:22:21;96323.78;;;3.80;74.19
62655;BME280;48717;55.556;37.816;2023-10-08T08:24:51;96286.34;;;3.83;74.72
62655;BME280;48717;55.556;37.816;2023-10-08T08:27:43;96314.31;;;3.77;73.19
62655;BME280;48717;55.556;37.816;2023-10-08T08:30:16;96308.69;;;3.90;72.55
62655;BME280;48717;55.556;37.816;2023-10-08T08:32:45;96312.16;;;3.90;71.66
62655;BME280;48717;55.556;37.816;2023-10-08T08:35:19;96296.53;;;3.90;72.29
62655;BME280;48717;55.556;37.816;2023-10-08T08:37:47;96322.34;;;3.98;71.26
62655;BME280;48717;55.556;37.816;2023-10-08T08:40:18;96319.97;;;3.90;71.37
62655;BME280;48717;55.556;37.816;2023-10-08T08:42:51;96324.78;;;4.04;71.29
62655;BME280;48717;55.556;37.816;2023-10-08T08:45:21;96297.78;;;4.05;70.85
62655;BME280;48717;55.556;37.816;2023-10-08T08:47:49;96313.09;;;4.16;69.73
62655;BME280;48717;55.556;37.816;2023-10-08T08:50:17;96314.00;;;4.15;67.85
62655;BME280;48717;55.556;37.816;2023-10-08T08:52:50;96321.72;;;4.18;68.40
62655;BME280;48717;55.556;37.816;2023-10-08T08:55:21;96314.84;;;4.16;67.77
62655;BME280;48717;55.556;37.816;2023-10-08T08:57:52;96322.28;;;4.28;68.02
62655;BME280;48717;55.556;37.816;2023-10-08T09:00:20;96301.84;;;4.14;68.00
62655;BME280;48717;55.556;37.816;2023-10-08T09:02:48;96325.94;;;4.23;67.50
62655;BME280;48717;55.556;37.816;2023-10-08T09:05:17;96288.41;;;4.00;67.11
62655;BME280;48717;55.556;37.816;2023-10-08T09:08:03;96338.75;;;4.02;69.08
62655;BME280;48717;55.556;37.816;2023-10-08T09:10:34;96335.63;;;3.90;68.92
62655;BME280;48717;55.556;37.816;2023-10-08T09:13:10;96304.38;;;3.89;69.74
62655;BME280;48717;55.556;37.816;2023-10-08T09:15:38;96331.06;;;4.26;68.72
62655;BME280;48717;55.556;37.816;2023-10-08T09:18:05;96331.19;;;4.21;67.71
62655;BME280;48717;55.556;37.816;2023-10-08T09:20:37;96322.38;;;3.97;67.51
62655;BME280;48717;55.556;37.816;2023-10-08T09:23:12;96297.28;;;3.94;68.50
62655;BME280;48717;55.556;37.816;2023-10-08T09:25:41;96339.59;;;4.31;67.90
62655;BME280;48717;55.556;37.816;2023-10-08T09:28:09;96387.44;;;4.30;66.93
62655;BME280;48717;55.556;37.816;2023-10-08T09:30:40;96361.22;;;4.06;67.12
62655;BME280;48717;55.556;37.816;2023-10-08T09:33:10;96309.75;;;3.84;67.62
62655;BME280;48717;55.556;37.816;2023-10-08T09:35:39;96343.09;;;4.30;67.46
62655;BME280;48717;55.556;37.816;2023-10-08T09:38:07;96362.34;;;4.26;66.43
62655;BME280;48717;55.556;37.816;2023-10-08T09:40:40;96374.31;;;4.04;66.81
62655;BME280;48717;55.556;37.816;2023-10-08T09:43:15;96345.84;;;3.97;67.86
62655;BME280;48717;55.556;37.816;2023-10-08T09:45:47;96360.75;;;4.22;66.89
62655;BME280;48717;55.556;37.816;2023-10-08T09:48:18;96358.75;;;4.01;65.64
62655;BME280;48717;55.556;37.816;2023-10-08T09:50:48;96353.63;;;4.27;65.73
62655;BME280;48717;55.556;37.816;2023-10-08T09:53:18;96352.88;;;4.23;64.68
62655;BME280;48717;55.556;37.816;2023-10-08T09:55:55;96366.03;;;4.18;65.29
62655;BME280;48717;55.556;37.816;2023-10-08T09:58:25;96352.22;;;4.16;65.23
62655;BME280;48717;55.556;37.816;2023-10-08T10:00:54;96341.88;;;4.13;64.93
62655;BME280;48717;55.556;37.816;2023-10-08T10:03:27;96355.63;;;4.18;64.47
62655;BME280;48717;55.556;37.816;2023-10-08T10:05:55;96378.53;;;4.09;64.67
62655;BME280;48717;55.556;37.816;2023-10-08T10:08:28;96359.88;;;3.92;65.36
62655;BME280;48717;55.556;37.816;2023-10-08T10:11:03;96380.78;;;3.91;65.95
62655;BME280;48717;55.556;37.816;2023-10-08T10:13:42;96381.34;;;4.01;65.36
62655;BME280;48717;55.556;37.816;2023-10-08T10:16:11;96390.03;;;4.01;65.96
62655;BME280;48717;55.556;37.816;2023-10-08T10:18:44;96368.91;;;4.11;66.82
62655;BME280;48717;55.556;37.816;2023-10-08T10:23:46;96375.47;;;4.23;65.27
62655;BME280;48717;55.556;37.816;2023-10-08T10:26:28;96363.09;;;4.01;65.77
62655;BME280;48717;55.556;37.816;2023-10-08T10:31:53;96394.50;;;3.98;68.85
62655;BME280;48717;55.556;37.816;2023-10-08T10:34:23;96400.16;;;3.82;69.49
62655;BME280;48717;55.556;37.816;2023-10-08T10:36:59;96374.13;;;3.81;71.30
62655;BME280;48717;55.556;37.816;2023-10-08T10:39:35;96412.53;;;3.74;71.68
62655;BME280;48717;55.556;37.816;2023-10-08T10:42:06;96356.50;;;3.59;71.72
62655;BME280;48717;55.556;37.816;2023-10-08T10:44:48;96372.53;;;3.75;73.24
62655;BME280;48717;55.556;37.816;2023-10-08T10:47:20;96363.94;;;3.73;72.56
62655;BME280;48717;55.556;37.816;2023-10-08T10:49:52;96352.09;;;3.62;71.05
62655;BME280;48717;55.556;37.816;2023-10-08T10:52:42;96369.06;;;3.76;71.26
62655;BME280;48717;55.556;37.816;2023-10-08T10:55:19;96391.41;;;3.83;72.26
62655;BME280;48717;55.556;37.816;2023-10-08T10:57:58;96380.22;;;3.81;72.89
62655;BME280;48717;55.556;37.816;2023-10-08T11:00:42;96383.09;;;3.72;73.60
62655;BME280;48717;55.556;37.816;2023-10-08T11:03:10;96388.91;;;3.50;75.40
62655;BME280;48717;55.556;37.816;2023-10-08T11:05:48;96373.88;;;3.28;74.88
62655;BME280;48717;55.556;37.816;2023-10-08T11:08:19;96349.91;;;2.82;77.31
62655;BME280;48717;55.556;37.816;2023-10-08T11:10:47;96395.25;;;3.06;79.17
62655;BME280;48717;55.556;37.816;2023-10-08T11:13:23;96395.56;;;2.94;80.11
62655;BME280;48717;55.556;37.816;2023-10-08T11:15:55;96353.06;;;2.60;79.91
62655;BME280;48717;55.556;37.816;2023-10-08T11:18:26;96380.38;;;2.78;81.63
62655;BME280;48717;55.556;37.816;2023-10-08T11:21:06;96415.06;;;2.77;82.37
62655;BME280;48717;55.556;37.816;2023-10-08T11:23:47;96406.22;;;2.84;83.36
62655;BME280;48717;55.556;37.816;2023-10-08T11:26:23;96398.44;;;2.83;85.06
62655;BME280;48717;55.556;37.816;2023-10-08T11:29:00;96419.44;;;2.77;84.62
62655;BME280;48717;55.556;37.816;2023-10-08T11:31:28;96393.16;;;2.51;86.40
62655;BME280;48717;55.556;37.816;2023-10-08T11:34:00;96397.28;;;2.60;87.26
62655;BME280;48717;55.556;37.816;2023-10-08T11:36:28;96369.00;;;2.46;88.06
62655;BME280;48717;55.556;37.816;2023-10-08T11:38:57;96407.72;;;2.58;86.65
62655;BME280;48717;55.556;37.816;2023-10-08T11:41:37;96394.25;;;2.41;85.87
62655;BME280;48717;55.556;37.816;2023-10-08T11:44:19;96407.94;;;2.49;86.93
62655;BME280;48717;55.556;37.816;2023-10-08T11:46:46;96403.56;;;2.51;88.68
62655;BME280;48717;55.556;37.816;2023-10-08T11:49:19;96295.16;;;1.80;87.83
62655;BME280;48717;55.556;37.816;2023-10-08T11:51:46;96367.91;;;2.20;87.60
62655;BME280;48717;55.556;37.816;2023-10-08T11:54:13;96417.53;;;2.47;89.17
62655;BME280;48717;55.556;37.816;2023-10-08T11:56:42;96396.03;;;2.40;90.40
62655;BME280;48717;55.556;37.816;2023-10-08T11:59:09;96410.53;;;2.49;91.83
62655;BME280;48717;55.556;37.816;2023-10-08T12:01:37;96391.94;;;2.28;89.97
62655;BME280;48717;55.556;37.816;2023-10-08T12:04:05;96422.03;;;2.40;90.82
62655;BME280;48717;55.556;37.816;2023-10-08T12:06:42;96409.34;;;2.26;90.96
62655;BME280;48717;55.556;37.816;2023-10-08T12:09:15;96424.28;;;2.16;91.23
62655;BME280;48717;55.556;37.816;2023-10-08T12:11:43;96406.19;;;2.12;92.01
62655;BME280;48717;55.556;37.816;2023-10-08T12:14:11;96418.50;;;2.03;91.85
62655;BME280;48717;55.556;37.816;2023-10-08T12:16:38;96399.69;;;1.92;92.60
62655;BME280;48717;55.556;37.816;2023-10-08T12:19:07;96415.22;;;1.95;94.80
62655;BME280;48717;55.556;37.816;2023-10-08T12:21:45;96411.72;;;1.96;95.19
62655;BME280;48717;55.556;37.816;2023-10-08T12:24:14;96413.50;;;1.94;95.02
62655;BME280;48717;55.556;37.816;2023-10-08T12:26:42;96411.84;;;1.90;95.11
62655;BME280;48717;55.556;37.816;2023-10-08T12:29:18;96414.63;;;1.82;95.27
62655;BME280;48717;55.556;37.816;2023-10-08T12:31:46;96410.25;;;1.82;94.92
62655;BME280;48717;55.556;37.816;2023-10-08T12:34:15;96400.13;;;1.70;94.71
62655;BME280;48717;55.556;37.816;2023-10-08T12:36:43;96411.97;;;1.83;95.72
62655;BME280;48717;55.556;37.816;2023-10-08T12:39:12;96421.38;;;1.89;95.81
62655;BME280;48717;55.556;37.816;2023-10-08T12:41:43;96414.50;;;1.87;96.03
62655;BME280;48717;55.556;37.816;2023-10-08T12:44:11;96432.69;;;1.87;96.38
62655;BME280;48717;55.556;37.816;2023-10-08T12:46:40;96412.13;;;1.77;95.96
62655;BME280;48717;55.556;37.816;2023-10-08T12:49:11;96409.47;;;1.80;96.68
62655;BME280;48717;55.556;37.816;2023-10-08T12:51:38;96404.38;;;1.74;97.16
62655;BME280;48717;55.556;37.816;2023-10-08T12:54:08;96426.84;;;1.75;96.84
62655;BME280;48717;55.556;37.816;2023-10-08T12:56:39;96420.78;;;1.76;96.86
62655;BME280;48717;55.556;37.816;2023-10-08T12:59:12;96424.34;;;1.72;97.57
62655;BME280;48717;55.556;37.816;2023-10-08T13:01:51;96395.22;;;1.58;97.79
62655;BME280;48717;55.556;37.816;2023-10-08T13:04:21;96431.19;;;1.76;97.42
62655;BME280;48717;55.556;37.816;2023-10-08T13:06:56;96410.47;;;1.73;97.48
62655;BME280;48717;55.556;37.816;2023-10-08T13:09:24;96386.56;;;1.55;97.93
62655;BME280;48717;55.556;37.816;2023-10-08T13:11:52;96421.00;;;1.67;98.19
62655;BME280;48717;55.556;37.816;2023-10-08T13:14:19;96421.00;;;1.67;98.11
62655;BME280;48717;55.556;37.816;2023-10-08T13:16:49;96428.66;;;1.73;98.51
62655;BME280;48717;55.556;37.816;2023-10-08T13:19:21;96425.25;;;1.69;97.86
62655;BME280;48717;55.556;37.816;2023-10-08T13:21:51;96430.53;;;1.65;98.19
62655;BME280;48717;55.556;37.816;2023-10-08T13:24:19;96437.44;;;1.66;97.70
62655;BME280;48717;55.556;37.816;2023-10-08T13:26:51;96410.03;;;1.51;98.96
62655;BME280;48717;55.556;37.816;2023-10-08T13:29:18;96434.22;;;1.54;98.36
62655;BME280;48717;55.556;37.816;2023-10-08T13:31:46;96397.28;;;1.40;98.33
62655;BME280;48717;55.556;37.816;2023-10-08T13:34:14;96434.25;;;1.51;98.76
62655;BME280;48717;55.556;37.816;2023-10-08T13:36:43;96423.13;;;1.46;98.51